Time;durP1;ratioP1;P1;durP2;ratioP2;P2;SDS_P1;SDS_P2;PMS_P1;PMS_P2;Temp;Humidity;BMP_temperature;BMP_pressure;BME280_temperature;BME280_humidity;BME280_pressure;Samples;Min_cycle;Max_cycle;Signal;HPM_P1;HPM_P2
2022/07/23 00:00:52;;;;;;;9.68;8.77;;;22.70;99.90;;;;;;6153653;23;20160;-74
2022/07/23 00:03:18;;;;;;;8.88;8.18;;;22.70;99.90;;;;;;6127556;23;20173;-74
2022/07/23 00:05:43;;;;;;;11.05;8.88;;;22.70;99.90;;;;;;6154211;23;20157;-74
2022/07/23 00:08:09;;;;;;;9.40;8.57;;;22.70;99.90;;;;;;6154019;23;20149;-74
2022/07/23 00:10:35;;;;;;;8.63;7.93;;;22.70;99.90;;;;;;6153243;23;20164;-74
2022/07/23 00:13:00;;;;;;;9.02;8.18;;;22.70;99.90;;;;;;6153436;23;20223;-74
2022/07/23 00:15:26;;;;;;;9.02;8.10;;;22.70;99.90;;;;;;6153984;23;20180;-74
2022/07/23 00:17:52;;;;;;;11.32;8.57;;;22.70;99.90;;;;;;6153907;23;20177;-74
2022/07/23 00:20:18;;;;;;;8.85;8.05;;;22.60;99.90;;;;;;6153171;23;20145;-75
2022/07/23 00:22:51;;;;;;;12.15;8.38;;;22.70;99.90;;;;;;6153848;23;20176;-75
2022/07/23 00:25:17;;;;;;;8.60;7.70;;;22.70;99.90;;;;;;6154040;23;20216;-75
2022/07/23 00:27:43;;;;;;;9.85;8.90;;;22.70;99.90;;;;;;6153666;23;20177;-75
2022/07/23 00:30:10;;;;;;;9.25;8.13;;;22.70;99.90;;;;;;6152749;23;20152;-75
2022/07/23 00:32:49;;;;;;;9.43;7.82;;;22.70;99.90;;;;;;6154444;23;20622;-75
2022/07/23 00:35:16;;;;;;;8.82;8.00;;;22.70;99.90;;;;;;6155842;23;20688;-74
2022/07/23 00:37:42;;;;;;;9.65;8.52;;;22.70;99.90;;;;;;6155485;23;20161;-75
2022/07/23 00:40:09;;;;;;;9.07;8.15;;;22.60;99.90;;;;;;6155527;23;20345;-74
2022/07/23 00:42:34;;;;;;;10.13;9.10;;;22.60;99.90;;;;;;6155680;23;20193;-74
2022/07/23 00:45:00;;;;;;;13.32;9.63;;;22.60;99.90;;;;;;6155446;23;20176;-75
2022/07/23 00:47:25;;;;;;;9.68;8.70;;;22.60;99.90;;;;;;6155502;23;20141;-75
2022/07/23 00:49:51;;;;;;;9.50;8.55;;;22.50;99.90;;;;;;6155410;23;20153;-75
2022/07/23 00:52:17;;;;;;;9.48;8.43;;;22.50;99.90;;;;;;6155685;23;20264;-75
2022/07/23 00:54:42;;;;;;;12.05;9.00;;;22.50;99.90;;;;;;6155493;23;20150;-75
2022/07/23 00:57:09;;;;;;;10.77;9.20;;;22.40;99.90;;;;;;6155411;23;20219;-75
2022/07/23 00:59:35;;;;;;;11.57;8.73;;;22.40;99.90;;;;;;6155622;23;20470;-75
2022/07/23 01:02:00;;;;;;;9.65;8.85;;;22.30;99.90;;;;;;6155837;23;20172;-74
2022/07/23 01:04:26;;;;;;;9.75;8.88;;;22.30;99.90;;;;;;6154798;23;20156;-74
2022/07/23 01:06:53;;;;;;;9.48;8.57;;;22.30;99.90;;;;;;6156118;23;20240;-74
2022/07/23 01:09:18;;;;;;;10.50;8.95;;;22.20;99.90;;;;;;6155148;23;20153;-75
2022/07/23 01:11:44;;;;;;;8.90;8.10;;;22.20;99.90;;;;;;6154936;23;20177;-74
2022/07/23 01:14:12;;;;;;;9.45;8.52;;;22.10;99.90;;;;;;6155629;23;20157;-74
2022/07/23 01:16:38;;;;;;;9.50;8.65;;;22.10;99.90;;;;;;6155461;23;20177;-74
2022/07/23 01:19:06;;;;;;;9.57;8.68;;;22.10;99.90;;;;;;6155125;23;20152;-74
2022/07/23 01:21:36;;;;;;;8.48;7.75;;;22.10;99.90;;;;;;6154953;23;20166;-74
2022/07/23 01:24:03;;;;;;;9.75;8.82;;;22.10;99.90;;;;;;6154943;23;20200;-75
2022/07/23 01:26:29;;;;;;;9.45;8.52;;;22.10;99.90;;;;;;6155341;23;20149;-75
2022/07/23 01:28:55;;;;;;;9.70;8.70;;;22.10;99.90;;;;;;6154709;23;20220;-74
2022/07/23 01:31:21;;;;;;;9.63;8.82;;;22.10;99.90;;;;;;6155209;23;20207;-74
2022/07/23 01:33:46;;;;;;;9.23;8.30;;;22.10;99.90;;;;;;6155352;23;20154;-74
2022/07/23 01:36:12;;;;;;;10.90;9.10;;;22.10;99.90;;;;;;6155204;23;20184;-74
2022/07/23 01:38:38;;;;;;;7.95;7.28;;;22.10;99.90;;;;;;6154612;23;20228;-74
2022/07/23 01:41:03;;;;;;;9.75;8.80;;;22.10;99.90;;;;;;6154394;23;20160;-75
2022/07/23 01:43:29;;;;;;;9.38;8.43;;;22.10;99.90;;;;;;6155231;23;20173;-75
2022/07/23 01:45:54;;;;;;;9.45;8.50;;;22.10;99.90;;;;;;6128725;23;20603;-74
2022/07/23 01:48:20;;;;;;;10.00;7.97;;;22.20;99.90;;;;;;6154871;23;20205;-74
2022/07/23 01:50:48;;;;;;;9.07;8.25;;;22.20;99.90;;;;;;6128613;23;20543;-74
2022/07/23 01:53:14;;;;;;;9.05;8.20;;;22.20;99.90;;;;;;6155010;23;20651;-75
2022/07/23 01:55:41;;;;;;;8.82;8.02;;;22.20;99.90;;;;;;6154702;23;20477;-75
2022/07/23 01:58:07;;;;;;;12.02;8.02;;;22.20;99.90;;;;;;6154333;23;20165;-74
2022/07/23 02:00:33;;;;;;;9.43;8.52;;;22.20;99.90;;;;;;6128753;23;20185;-74
2022/07/23 02:02:58;;;;;;;9.35;8.52;;;22.20;99.90;;;;;;6154947;23;20196;-74
2022/07/23 02:05:25;;;;;;;9.63;8.63;;;22.20;99.90;;;;;;6154863;23;20779;-74
2022/07/23 02:07:52;;;;;;;8.43;7.68;;;22.20;99.90;;;;;;6155125;23;20157;-74
2022/07/23 02:10:17;;;;;;;9.90;8.20;;;22.40;99.90;;;;;;6154318;23;20152;-75
2022/07/23 02:12:43;;;;;;;9.20;8.50;;;22.50;99.90;;;;;;6127646;23;20173;-75
2022/07/23 02:15:09;;;;;;;13.38;8.23;;;22.50;99.90;;;;;;6154536;23;20614;-74
2022/07/23 02:17:34;;;;;;;11.93;8.35;;;22.50;99.90;;;;;;6154147;23;20249;-74
2022/07/23 02:20:00;;;;;;;8.52;7.82;;;22.60;99.90;;;;;;6154043;23;20233;-74
2022/07/23 02:22:26;;;;;;;9.43;8.40;;;22.50;99.90;;;;;;6128392;23;20173;-75
2022/07/23 02:24:51;;;;;;;9.02;7.15;;;22.60;99.90;;;;;;6154483;23;20177;-75
2022/07/23 02:27:17;;;;;;;15.02;8.45;;;22.70;99.90;;;;;;6154769;23;20216;-74
2022/07/23 02:29:42;;;;;;;8.35;7.45;;;22.70;99.90;;;;;;6154186;23;20150;-74
2022/07/23 02:32:08;;;;;;;9.15;8.25;;;22.70;99.90;;;;;;6154534;23;20689;-74
2022/07/23 02:34:34;;;;;;;8.32;7.53;;;22.80;99.90;;;;;;6154536;23;20188;-75
2022/07/23 02:36:59;;;;;;;10.07;9.00;;;22.80;99.90;;;;;;6154678;23;20183;-75
2022/07/23 02:39:25;;;;;;;8.15;7.32;;;22.80;99.90;;;;;;6153950;23;20170;-74
2022/07/23 02:41:51;;;;;;;8.13;7.38;;;22.80;99.90;;;;;;6153444;23;20677;-74
2022/07/23 02:44:16;;;;;;;10.43;8.07;;;22.80;99.90;;;;;;6154567;23;20579;-74
2022/07/23 02:46:42;;;;;;;9.10;6.95;;;22.60;99.90;;;;;;6127688;23;20149;-75
2022/07/23 02:49:08;;;;;;;7.07;6.55;;;22.40;99.90;;;;;;6153847;23;20157;-74
2022/07/23 02:51:33;;;;;;;7.45;6.75;;;22.30;99.90;;;;;;6153651;23;20178;-75
2022/07/23 02:53:59;;;;;;;7.88;7.00;;;22.20;99.90;;;;;;6128800;23;20157;-74
2022/07/23 02:56:24;;;;;;;9.48;6.78;;;22.10;99.90;;;;;;6153852;23;20208;-74
2022/07/23 02:58:50;;;;;;;7.93;7.32;;;22.10;99.90;;;;;;6154369;23;20690;-75
2022/07/23 03:01:15;;;;;;;9.82;6.75;;;21.90;99.90;;;;;;6154223;23;20177;-74
2022/07/23 03:03:41;;;;;;;8.20;7.45;;;21.80;99.90;;;;;;6152905;23;20208;-74
2022/07/23 03:06:07;;;;;;;8.18;7.40;;;21.80;99.90;;;;;;6153317;23;20157;-74
2022/07/23 03:08:32;;;;;;;9.27;7.57;;;21.40;99.90;;;;;;6153828;23;20662;-74
2022/07/23 03:10:58;;;;;;;9.65;7.50;;;21.00;99.90;;;;;;6154918;23;20156;-73
2022/07/23 03:13:24;;;;;;;8.57;6.20;;;20.60;99.90;;;;;;6154307;23;20173;-75
2022/07/23 03:15:49;;;;;;;10.95;9.48;;;20.20;99.90;;;;;;6153990;23;20237;-75
2022/07/23 03:18:15;;;;;;;10.10;8.07;;;19.70;99.90;;;;;;6153520;23;20208;-75
2022/07/23 03:20:40;;;;;;;7.97;7.22;;;19.40;99.90;;;;;;6152948;23;20153;-74
2022/07/23 03:23:06;;;;;;;10.80;8.05;;;19.20;99.90;;;;;;6153251;23;20165;-76
2022/07/23 03:25:32;;;;;;;9.52;8.63;;;19.00;99.90;;;;;;6152963;23;20216;-76
2022/07/23 03:27:57;;;;;;;11.23;8.93;;;18.90;99.90;;;;;;6154009;23;20633;-75
2022/07/23 03:30:23;;;;;;;13.57;10.52;;;18.90;99.90;;;;;;6153607;23;20157;-75
2022/07/23 03:32:49;;;;;;;10.15;9.15;;;19.00;99.90;;;;;;6153516;23;20173;-75
2022/07/23 03:35:14;;;;;;;10.68;9.70;;;18.90;99.90;;;;;;6153402;23;20495;-75
2022/07/23 03:37:40;;;;;;;11.82;9.90;;;18.80;99.90;;;;;;6153654;23;20145;-74
2022/07/23 03:40:06;;;;;;;10.00;8.80;;;18.70;99.90;;;;;;6153267;23;20280;-74
2022/07/23 03:42:32;;;;;;;9.75;8.73;;;18.70;99.90;;;;;;6153429;23;20174;-75
2022/07/23 03:44:57;;;;;;;9.50;8.63;;;18.70;99.90;;;;;;6153855;23;20180;-75
2022/07/23 03:47:23;;;;;;;8.77;7.95;;;18.60;99.90;;;;;;6154041;23;20172;-75
2022/07/23 03:49:49;;;;;;;8.95;8.15;;;18.70;99.90;;;;;;6153684;23;20156;-75
2022/07/23 03:52:15;;;;;;;9.98;9.07;;;18.70;99.90;;;;;;6154047;23;20185;-75
2022/07/23 03:54:40;;;;;;;9.18;8.38;;;18.70;99.90;;;;;;6151136;23;20232;-75
2022/07/23 03:57:06;;;;;;;7.18;6.57;;;18.60;99.90;;;;;;6153779;23;20173;-75
2022/07/23 03:59:31;;;;;;;9.50;8.60;;;18.70;99.90;;;;;;6154140;23;20141;-75
2022/07/23 04:01:57;;;;;;;10.23;9.32;;;18.90;99.90;;;;;;6153577;23;20169;-76
2022/07/23 04:04:23;;;;;;;8.48;7.65;;;18.90;99.90;;;;;;6153475;23;20145;-75
2022/07/23 04:06:48;;;;;;;6.85;6.18;;;18.80;99.90;;;;;;6153931;23;20153;-75
2022/07/23 04:09:14;;;;;;;8.65;7.85;;;18.60;99.90;;;;;;6153778;23;20634;-75
2022/07/23 04:11:40;;;;;;;8.20;7.40;;;18.70;99.90;;;;;;6153890;23;20514;-75
2022/07/23 04:14:05;;;;;;;9.00;6.38;;;18.70;99.90;;;;;;6154456;23;20180;-75
2022/07/23 04:16:31;;;;;;;6.80;6.10;;;18.60;99.90;;;;;;6154174;23;20177;-75
2022/07/23 04:18:57;;;;;;;6.50;6.00;;;18.50;99.90;;;;;;6153027;23;20229;-76
2022/07/23 04:21:23;;;;;;;6.95;6.35;;;18.60;99.90;;;;;;6154075;23;20146;-75
2022/07/23 04:23:49;;;;;;;5.93;5.38;;;18.70;99.90;;;;;;6128138;23;20195;-75
2022/07/23 04:26:15;;;;;;;7.28;6.68;;;18.70;99.90;;;;;;6154290;23;20160;-75
2022/07/23 04:28:41;;;;;;;9.05;7.85;;;18.80;99.90;;;;;;6127444;23;20157;-76
2022/07/23 04:31:07;;;;;;;8.48;7.63;;;19.10;99.90;;;;;;6153799;23;20220;-75
2022/07/23 04:33:32;;;;;;;8.50;7.70;;;19.20;99.90;;;;;;6154259;23;20154;-75
2022/07/23 04:35:58;;;;;;;7.60;6.90;;;19.30;99.90;;;;;;6127439;23;20177;-76
2022/07/23 04:38:23;;;;;;;7.78;5.65;;;19.30;99.90;;;;;;6154192;23;20200;-76
2022/07/23 04:40:49;;;;;;;8.23;6.68;;;19.30;99.90;;;;;;6153155;23;20228;-75
2022/07/23 04:43:15;;;;;;;7.00;6.40;;;19.20;99.90;;;;;;6153921;23;20681;-75
2022/07/23 04:45:40;;;;;;;6.30;5.13;;;19.40;99.90;;;;;;6154403;23;20153;-76
2022/07/23 04:48:06;;;;;;;6.55;6.00;;;19.30;99.90;;;;;;6153542;23;20153;-76
2022/07/23 04:50:31;;;;;;;5.60;5.20;;;19.30;99.90;;;;;;6153412;23;20153;-76
2022/07/23 04:52:57;;;;;;;7.30;5.90;;;19.50;99.90;;;;;;6154616;23;20223;-79
2022/07/23 04:55:23;;;;;;;6.63;6.03;;;19.70;99.90;;;;;;6133456;23;20154;-79
2022/07/23 04:57:48;;;;;;;5.20;4.70;;;19.80;99.90;;;;;;6129719;23;20283;-78
2022/07/23 05:00:14;;;;;;;7.47;5.90;;;19.80;99.90;;;;;;6127593;23;20161;-78
2022/07/23 05:02:40;;;;;;;5.82;5.43;;;19.80;99.90;;;;;;6155070;23;20172;-78
2022/07/23 05:05:06;;;;;;;7.60;6.20;;;19.90;99.90;;;;;;6159664;23;20149;-78
2022/07/23 05:07:32;;;;;;;7.55;6.90;;;20.10;99.90;;;;;;6159380;23;20146;-78
2022/07/23 05:09:57;;;;;;;6.57;5.97;;;20.20;99.90;;;;;;6155713;23;20177;-79
2022/07/23 05:12:23;;;;;;;5.65;5.13;;;20.30;99.90;;;;;;6129565;23;20173;-78
2022/07/23 05:14:49;;;;;;;5.78;5.38;;;20.30;99.90;;;;;;6130744;23;20607;-77
2022/07/23 05:17:14;;;;;;;6.72;6.13;;;20.60;99.90;;;;;;6152470;23;20405;-77
2022/07/23 05:19:40;;;;;;;6.88;6.28;;;20.80;99.90;;;;;;6153027;23;20479;-78
2022/07/23 05:22:05;;;;;;;5.97;5.57;;;20.90;99.90;;;;;;6155591;23;20224;-78
2022/07/23 05:24:31;;;;;;;6.75;6.00;;;20.90;99.90;;;;;;6155921;23;20237;-78
2022/07/23 05:26:56;;;;;;;5.53;5.13;;;20.80;99.90;;;;;;6155283;23;20158;-78
2022/07/23 05:29:22;;;;;;;5.80;5.40;;;20.80;99.90;;;;;;6154959;23;20157;-76
2022/07/23 05:31:48;;;;;;;5.90;5.40;;;21.00;99.90;;;;;;6154001;23;20557;-77
2022/07/23 05:34:13;;;;;;;5.55;5.00;;;21.10;99.90;;;;;;6155166;23;20157;-76
2022/07/23 05:36:39;;;;;;;5.43;4.93;;;21.20;99.90;;;;;;6154994;23;20177;-77
2022/07/23 05:39:05;;;;;;;9.20;5.32;;;21.30;99.90;;;;;;6154298;23;20205;-77
2022/07/23 05:41:30;;;;;;;5.80;4.70;;;21.40;99.90;;;;;;6154650;23;20173;-77
2022/07/23 05:43:56;;;;;;;5.78;5.25;;;21.40;99.90;;;;;;6155134;23;20213;-77
2022/07/23 05:46:22;;;;;;;4.93;4.43;;;21.60;99.90;;;;;;6154947;23;20607;-77
2022/07/23 05:48:49;;;;;;;5.05;4.55;;;21.60;99.90;;;;;;6154109;23;20153;-78
2022/07/23 05:51:25;;;;;;;4.55;4.25;;;21.60;99.90;;;;;;6154287;23;20154;-78
2022/07/23 05:53:51;;;;;;;4.88;4.45;;;21.70;99.90;;;;;;6154729;23;20622;-78
2022/07/23 05:56:17;;;;;;;5.05;4.65;;;21.70;99.90;;;;;;6155196;23;20259;-79
2022/07/23 05:58:43;;;;;;;5.28;4.70;;;21.90;99.90;;;;;;6154762;23;20543;-75
2022/07/23 06:01:09;;;;;;;6.90;4.97;;;21.90;99.90;;;;;;6154542;23;20146;-76
2022/07/23 06:03:34;;;;;;;6.65;4.63;;;21.90;99.90;;;;;;6154870;23;20160;-77
2022/07/23 06:06:00;;;;;;;5.55;5.05;;;22.00;99.90;;;;;;6154387;23;20149;-77
2022/07/23 06:08:26;;;;;;;5.28;4.78;;;22.00;99.90;;;;;;6154685;23;20149;-76
2022/07/23 06:10:51;;;;;;;5.43;4.90;;;22.00;99.90;;;;;;6154146;23;20153;-77
2022/07/23 06:13:20;;;;;;;6.25;4.88;;;22.00;99.90;;;;;;6154243;23;20169;-77
2022/07/23 06:15:45;;;;;;;5.85;5.10;;;22.10;99.90;;;;;;6154318;23;20181;-77
2022/07/23 06:18:11;;;;;;;4.75;4.35;;;22.20;99.90;;;;;;6155212;23;20149;-77
2022/07/23 06:20:36;;;;;;;5.07;4.50;;;22.40;99.90;;;;;;6154565;23;20177;-77
2022/07/23 06:23:02;;;;;;;5.40;4.90;;;22.60;99.90;;;;;;6154741;23;20192;-75
2022/07/23 06:25:28;;;;;;;5.00;4.57;;;22.80;99.90;;;;;;6153765;23;20527;-76
2022/07/23 06:27:53;;;;;;;5.30;4.85;;;22.80;99.90;;;;;;6154641;23;20153;-75
2022/07/23 06:30:19;;;;;;;5.22;4.80;;;22.80;99.90;;;;;;6154424;23;20233;-76
2022/07/23 06:32:46;;;;;;;4.78;4.38;;;22.80;99.90;;;;;;6153823;23;20169;-75
2022/07/23 06:35:12;;;;;;;5.13;4.68;;;22.90;99.90;;;;;;6154456;23;20237;-77
2022/07/23 06:37:37;;;;;;;5.18;4.68;;;23.00;99.90;;;;;;6154312;23;20173;-78
2022/07/23 06:40:04;;;;;;;5.50;4.68;;;23.00;99.90;;;;;;6154016;23;20626;-77
2022/07/23 06:42:29;;;;;;;5.30;4.75;;;23.00;99.90;;;;;;6154269;23;20169;-76
2022/07/23 06:44:55;;;;;;;4.80;4.40;;;23.10;99.90;;;;;;6154844;23;20474;-76
2022/07/23 06:47:21;;;;;;;7.40;4.65;;;23.10;99.90;;;;;;6154535;23;20212;-76
2022/07/23 06:49:46;;;;;;;5.38;4.97;;;23.10;99.90;;;;;;6153073;23;20153;-74
2022/07/23 06:52:12;;;;;;;5.05;4.50;;;23.10;99.90;;;;;;6154115;23;20222;-75
2022/07/23 06:54:37;;;;;;;4.75;4.28;;;23.30;99.90;;;;;;6154606;23;20233;-74
2022/07/23 06:57:03;;;;;;;4.28;3.88;;;23.50;99.90;;;;;;6154245;23;20177;-74
2022/07/23 06:59:29;;;;;;;5.80;4.38;;;23.70;99.90;;;;;;6153491;23;20225;-73
2022/07/23 07:01:54;;;;;;;4.22;3.83;;;24.10;99.90;;;;;;6154813;23;20623;-76
2022/07/23 07:04:20;;;;;;;4.45;4.15;;;24.50;99.90;;;;;;6155019;23;20200;-71
2022/07/23 07:06:45;;;;;;;4.25;3.95;;;24.70;99.90;;;;;;6153604;23;20185;-72
2022/07/23 07:09:11;;;;;;;4.38;3.70;;;25.00;99.90;;;;;;6153025;23;20153;-70
2022/07/23 07:11:37;;;;;;;4.47;4.18;;;25.20;99.90;;;;;;6152968;23;20611;-71
2022/07/23 07:14:04;;;;;;;4.38;4.07;;;25.20;99.90;;;;;;6153720;23;20149;-70
2022/07/23 07:16:29;;;;;;;3.92;3.63;;;25.00;99.90;;;;;;6153942;23;20208;-75
2022/07/23 07:18:55;;;;;;;3.97;3.78;;;24.90;99.90;;;;;;6127813;23;20164;-75
2022/07/23 07:21:20;;;;;;;4.00;3.63;;;24.70;99.90;;;;;;6153095;23;20593;-71
2022/07/23 07:23:46;;;;;;;4.75;3.60;;;24.70;99.90;;;;;;6151895;23;20150;-71
2022/07/23 07:26:12;;;;;;;5.07;4.03;;;24.70;99.90;;;;;;6152225;23;20212;-71
2022/07/23 07:28:37;;;;;;;5.53;3.60;;;24.80;99.90;;;;;;6152497;23;20153;-70
2022/07/23 07:31:03;;;;;;;4.38;3.95;;;24.70;99.90;;;;;;6153706;23;20157;-73
2022/07/23 07:33:29;;;;;;;4.20;3.80;;;24.60;99.90;;;;;;6153844;23;20176;-71
2022/07/23 07:35:54;;;;;;;5.15;3.70;;;24.60;99.90;;;;;;6153430;23;20181;-70
2022/07/23 07:38:20;;;;;;;4.00;3.70;;;24.60;99.90;;;;;;6154169;23;20171;-70
2022/07/23 07:40:46;;;;;;;4.07;3.78;;;24.70;99.90;;;;;;6153720;23;20657;-70
2022/07/23 07:43:11;;;;;;;4.07;3.78;;;24.80;99.90;;;;;;6153243;23;20515;-70
2022/07/23 07:45:37;;;;;;;4.68;3.47;;;25.00;99.90;;;;;;6154202;23;20153;-71
2022/07/23 07:48:03;;;;;;;3.80;3.60;;;25.20;99.90;;;;;;6154138;23;20627;-71
2022/07/23 07:50:28;;;;;;;4.20;3.88;;;25.40;99.90;;;;;;6153777;23;20153;-71
2022/07/23 07:52:54;;;;;;;3.17;2.97;;;25.50;99.90;;;;;;6153375;23;20694;-71
2022/07/23 07:55:20;;;;;;;3.47;3.17;;;25.90;99.90;;;;;;6153626;23;20155;-71
2022/07/23 07:57:45;;;;;;;3.20;2.90;;;26.10;99.90;;;;;;6153978;23;20218;-70
2022/07/23 08:00:12;;;;;;;3.38;3.08;;;26.30;99.90;;;;;;6153181;23;20145;-70
2022/07/23 08:02:44;;;;;;;3.80;3.50;;;26.30;99.90;;;;;;6153768;23;20661;-71
2022/07/23 08:05:10;;;;;;;3.38;3.17;;;26.50;99.90;;;;;;6154132;23;20552;-70
2022/07/23 08:07:37;;;;;;;3.35;3.05;;;26.80;99.90;;;;;;6153632;23;20154;-71
2022/07/23 08:10:03;;;;;;;3.75;2.95;;;26.90;99.90;;;;;;6127476;23;20550;-70
2022/07/23 08:12:41;;;;;;;2.95;2.83;;;27.00;99.90;;;;;;6153615;23;20173;-71
2022/07/23 08:15:07;;;;;;;3.30;3.10;;;27.20;99.90;;;;;;6153149;23;20141;-70
2022/07/23 08:17:33;;;;;;;3.38;3.15;;;27.40;99.90;;;;;;6153622;23;20173;-71
2022/07/23 08:19:59;;;;;;;3.10;2.90;;;27.60;99.90;;;;;;6153948;23;20150;-71
2022/07/23 08:22:24;;;;;;;3.28;3.00;;;27.90;99.90;;;;;;6153712;23;20497;-71
2022/07/23 08:24:50;;;;;;;3.78;3.47;;;28.10;99.90;;;;;;6153514;23;20153;-71
2022/07/23 08:27:15;;;;;;;3.50;3.22;;;28.20;99.90;;;;;;6153949;23;20160;-71
2022/07/23 08:29:41;;;;;;;3.33;3.05;;;28.50;99.90;;;;;;6153609;23;20149;-70
2022/07/23 08:32:06;;;;;;;3.47;3.17;;;28.80;97.80;;;;;;6152983;23;20244;-71
2022/07/23 08:34:32;;;;;;;3.00;2.90;;;28.90;97.40;;;;;;6153683;23;20149;-70
2022/07/23 08:36:58;;;;;;;3.25;3.05;;;29.00;96.40;;;;;;6153814;23;20169;-71
2022/07/23 08:39:23;;;;;;;2.85;2.75;;;29.00;95.20;;;;;;6153476;23;20208;-71
2022/07/23 08:41:50;;;;;;;2.47;2.35;;;28.90;95.10;;;;;;6153321;23;20166;-70
2022/07/23 08:44:19;;;;;;;3.33;3.13;;;28.90;94.10;;;;;;6153984;23;20588;-71
2022/07/23 08:46:45;;;;;;;2.88;2.67;;;28.70;93.20;;;;;;6127702;23;20157;-71
2022/07/23 08:49:10;;;;;;;2.80;2.70;;;28.50;93.90;;;;;;6153176;23;20272;-70
2022/07/23 08:51:36;;;;;;;3.38;3.08;;;28.50;94.40;;;;;;6152850;23;20173;-70
2022/07/23 08:54:03;;;;;;;3.20;3.00;;;28.70;93.50;;;;;;6154416;23;20154;-71
2022/07/23 08:56:29;;;;;;;3.30;3.10;;;28.90;93.30;;;;;;6155326;23;20627;-71
2022/07/23 08:58:55;;;;;;;3.38;3.17;;;28.90;93.10;;;;;;6155265;23;20192;-71
2022/07/23 09:01:20;;;;;;;3.05;2.83;;;29.00;92.60;;;;;;6155502;23;20176;-70
2022/07/23 09:03:46;;;;;;;3.65;3.35;;;28.90;92.10;;;;;;6155598;23;20489;-71
2022/07/23 09:06:12;;;;;;;3.30;3.10;;;28.90;92.30;;;;;;6155257;23;20162;-70
2022/07/23 09:08:38;;;;;;;2.95;2.85;;;29.00;92.40;;;;;;6154680;23;20154;-71
2022/07/23 09:11:12;;;;;;;3.50;3.30;;;29.20;92.50;;;;;;6155652;23;20153;-70
2022/07/23 09:13:53;;;;;;;3.53;3.17;;;29.50;92.30;;;;;;6155314;23;20217;-71
2022/07/23 09:16:31;;;;;;;3.80;3.00;;;29.80;91.10;;;;;;6152253;23;20248;-71
2022/07/23 09:19:00;;;;;;;3.00;2.80;;;30.20;90.30;;;;;;6154349;23;20140;-72
2022/07/23 09:21:34;;;;;;;3.60;3.30;;;30.40;90.00;;;;;;6154670;23;20196;-72
2022/07/23 09:24:01;;;;;;;3.80;3.60;;;30.40;89.90;;;;;;6155274;23;20513;-74
2022/07/23 09:26:33;;;;;;;3.75;3.55;;;30.20;90.00;;;;;;6154586;23;20493;-73
2022/07/23 09:29:00;;;;;;;3.78;3.58;;;30.00;90.00;;;;;;6154608;23;20149;-72
2022/07/23 09:31:33;;;;;;;4.18;3.88;;;29.80;91.20;;;;;;6155144;23;20252;-72
2022/07/23 09:34:08;;;;;;;3.50;3.25;;;29.80;90.40;;;;;;6155131;23;20212;-73
2022/07/23 09:36:33;;;;;;;3.50;3.30;;;29.80;91.20;;;;;;6155323;23;20170;-72
2022/07/23 09:38:59;;;;;;;3.70;3.42;;;30.00;89.10;;;;;;6155704;23;20153;-73
2022/07/23 09:41:35;;;;;;;4.28;3.97;;;30.10;87.20;;;;;;6154414;23;20173;-76
2022/07/23 09:44:08;;;;;;;3.88;3.35;;;30.20;88.70;;;;;;6155095;23;20137;-72
2022/07/23 09:46:33;;;;;;;4.43;4.13;;;30.10;89.80;;;;;;6154818;23;20610;-72
2022/07/23 09:49:19;;;;;;;4.60;4.18;;;29.90;90.00;;;;;;6154928;23;20150;-72
2022/07/23 09:51:54;;;;;;;4.10;3.90;;;29.50;91.50;;;;;;6154749;23;20562;-72
2022/07/23 09:54:39;;;;;;;4.15;3.90;;;29.40;92.70;;;;;;6155445;23;20485;-72
2022/07/23 09:57:15;;;;;;;4.43;4.13;;;29.30;93.00;;;;;;6155096;23;20325;-72
2022/07/23 09:59:42;;;;;;;4.13;3.83;;;29.50;93.40;;;;;;6154425;23;20520;-72
2022/07/23 10:02:10;;;;;;;4.03;3.60;;;31.20;91.00;;;;;;6154201;23;20173;-72
2022/07/23 10:04:36;;;;;;;4.63;4.00;;;33.30;83.40;;;;;;6154713;23;20183;-72
2022/07/23 10:07:04;;;;;;;4.35;4.03;;;34.30;78.80;;;;;;6154670;23;20157;-72
2022/07/23 10:09:36;;;;;;;4.50;4.20;;;34.80;76.50;;;;;;6154768;23;20160;-72
2022/07/23 10:14:42;;;;;;;4.50;4.20;;;38.10;64.60;;;;;;6164864;23;20137;-74
2022/07/23 10:17:09;;;;;;;4.38;4.07;;;38.90;60.70;;;;;;6154030;23;20172;-73
2022/07/23 10:19:35;;;;;;;4.32;4.13;;;39.50;58.90;;;;;;6154157;23;20583;-74
2022/07/23 10:22:02;;;;;;;4.45;4.15;;;40.20;57.20;;;;;;6154898;23;20197;-72
2022/07/23 10:24:47;;;;;;;3.80;3.60;;;41.00;54.40;;;;;;6154782;23;20462;-73
2022/07/23 10:27:25;;;;;;;4.25;3.95;;;42.00;52.00;;;;;;6153783;23;20156;-72
2022/07/23 10:29:57;;;;;;;4.22;4.03;;;41.90;51.00;;;;;;6154322;23;20152;-69
2022/07/23 10:32:53;;;;;;;4.97;4.57;;;41.90;51.30;;;;;;6153674;23;20633;-70
2022/07/23 10:35:38;;;;;;;4.43;4.10;;;42.20;50.80;;;;;;6153268;23;20148;-70
2022/07/23 10:38:20;;;;;;;4.25;3.95;;;41.80;49.80;;;;;;6153405;23;20605;-70
2022/07/23 10:40:58;;;;;;;4.68;4.28;;;42.40;48.90;;;;;;6128034;23;20153;-70
2022/07/23 10:43:24;;;;;;;4.30;3.92;;;43.10;47.80;;;;;;6153625;23;20535;-70
2022/07/23 10:45:50;;;;;;;3.85;3.65;;;43.20;46.70;;;;;;6156580;23;20148;-69
2022/07/23 10:48:26;;;;;;;4.72;4.32;;;43.30;47.00;;;;;;6154315;23;20230;-69
2022/07/23 10:51:18;;;;;;;4.03;3.83;;;42.70;47.60;;;;;;6127680;23;20163;-69
2022/07/23 10:53:49;;;;;;;3.90;3.60;;;42.40;48.80;;;;;;6150057;23;20675;-70
2022/07/23 10:56:15;;;;;;;4.43;4.15;;;43.20;47.80;;;;;;6154234;23;20204;-70
2022/07/23 10:58:49;;;;;;;3.78;3.58;;;43.10;47.60;;;;;;6153340;23;20175;-69
2022/07/23 11:01:32;;;;;;;3.80;3.60;;;43.00;47.30;;;;;;6153741;23;20145;-69
2022/07/23 11:03:58;;;;;;;3.25;3.05;;;43.30;46.40;;;;;;6154231;23;20460;-70
2022/07/23 11:06:44;;;;;;;3.78;3.38;;;44.00;44.80;;;;;;6154376;23;20149;-70
2022/07/23 11:09:37;;;;;;;3.42;3.22;;;45.10;42.90;;;;;;6153177;23;20560;-69
2022/07/23 11:12:21;;;;;;;3.67;3.47;;;44.60;43.20;;;;;;6154033;23;20183;-70
2022/07/23 11:15:05;;;;;;;3.67;3.38;;;44.40;42.00;;;;;;6152245;23;20232;-69
2022/07/23 11:17:33;;;;;;;4.10;3.80;;;43.80;42.80;;;;;;6152437;23;20176;-69
2022/07/23 11:20:17;;;;;;;3.58;3.30;;;43.60;42.70;;;;;;6151953;23;20162;-70
2022/07/23 11:22:42;;;;;;;2.80;2.70;;;42.60;44.50;;;;;;6153255;23;20168;-69
2022/07/23 11:25:12;;;;;;;3.90;3.42;;;41.30;45.00;;;;;;6153035;23;20149;-70
2022/07/23 11:27:39;;;;;;;3.80;3.60;;;39.70;55.80;;;;;;6153644;23;20160;-69
2022/07/23 11:30:07;;;;;;;4.43;4.13;;;37.10;54.60;;;;;;6153446;23;20650;-67
2022/07/23 11:32:37;;;;;;;5.47;4.90;;;34.70;78.70;;;;;;6151244;23;20260;-70
2022/07/23 11:35:23;;;;;;;8.40;6.43;;;31.80;99.90;;;;;;6152722;23;20232;-71
2022/07/23 11:37:51;;;;;;;19.38;9.38;;;29.00;99.90;;;;;;6153873;23;20509;-72
2022/07/23 11:40:17;;;;;;;19.90;10.10;;;26.40;99.90;;;;;;6153233;23;20156;-73
2022/07/23 11:43:04;;;;;;;17.60;10.02;;;24.70;99.90;;;;;;6152839;23;20170;-73
2022/07/23 11:45:52;;;;;;;10.95;7.95;;;23.60;99.90;;;;;;6154851;23;20587;-76
2022/07/23 11:48:23;;;;;;;7.80;6.93;;;23.30;99.90;;;;;;6154899;23;20200;-76
2022/07/23 11:50:50;;;;;;;8.80;8.00;;;23.20;99.90;;;;;;6153654;23;20216;-77
2022/07/23 11:53:24;;;;;;;7.72;6.85;;;23.20;99.90;;;;;;6156893;23;20287;-77
2022/07/23 11:55:51;;;;;;;7.15;6.22;;;23.30;99.90;;;;;;6129386;23;20169;-78
2022/07/23 11:58:16;;;;;;;6.15;5.75;;;23.50;99.90;;;;;;6157974;23;20165;-77
2022/07/23 12:00:42;;;;;;;7.22;6.63;;;23.70;99.90;;;;;;6130923;23;20181;-77
2022/07/23 12:03:08;;;;;;;6.65;6.15;;;24.00;99.90;;;;;;6131959;23;20653;-70
2022/07/23 12:05:36;;;;;;;7.22;6.63;;;25.10;99.90;;;;;;6153994;23;20150;-71
2022/07/23 12:08:07;;;;;;;8.60;7.90;;;26.10;99.90;;;;;;6153673;23;20177;-71
2022/07/23 12:10:39;;;;;;;8.07;7.38;;;26.50;99.90;;;;;;6153186;23;20138;-71
2022/07/23 12:13:11;;;;;;;7.30;6.70;;;26.90;99.90;;;;;;6153879;23;20169;-71
2022/07/23 12:15:46;;;;;;;7.57;6.95;;;27.50;99.90;;;;;;6154011;23;20149;-70
2022/07/23 12:18:16;;;;;;;7.72;7.03;;;28.70;99.90;;;;;;6152911;23;20137;-70
2022/07/23 12:20:45;;;;;;;7.18;6.57;;;29.60;99.90;;;;;;6153063;23;20173;-71
2022/07/23 12:23:12;;;;;;;7.72;7.07;;;30.00;99.90;;;;;;6153543;23;20169;-71
2022/07/23 12:25:41;;;;;;;9.00;6.10;;;30.60;99.90;;;;;;6152973;23;20224;-71
2022/07/23 12:28:10;;;;;;;5.97;5.47;;;31.80;99.90;;;;;;6153022;23;20160;-71
2022/07/23 12:30:44;;;;;;;6.88;5.90;;;32.30;99.90;;;;;;6155070;23;20478;-71
2022/07/23 12:33:15;;;;;;;6.93;6.15;;;32.40;99.90;;;;;;6155106;23;20509;-71
2022/07/23 12:35:46;;;;;;;5.95;5.35;;;32.10;99.90;;;;;;6155258;23;20133;-71
2022/07/23 12:38:17;;;;;;;5.55;5.18;;;32.40;99.90;;;;;;6155777;23;20237;-70
2022/07/23 12:40:44;;;;;;;5.50;5.00;;;33.30;99.90;;;;;;6154915;23;20149;-69
2022/07/23 12:43:29;;;;;;;5.43;5.13;;;34.00;99.90;;;;;;6154204;23;20200;-69
2022/07/23 12:46:02;;;;;;;5.50;5.00;;;34.60;99.50;;;;;;6154999;23;20159;-69
2022/07/23 12:48:30;;;;;;;6.00;5.10;;;35.10;99.90;;;;;;6154730;23;20208;-69
2022/07/23 12:51:01;;;;;;;5.35;5.00;;;35.60;99.90;;;;;;6155210;23;20578;-72